sensor_id;sensor_type;location;lat;lon;timestamp;P1;durP1;ratioP1;P2;durP2;ratioP2
840;SDS011;406;48.566;13.450;2023-06-10T00:02:01;56.27;;;13.27;;
840;SDS011;406;48.566;13.450;2023-06-10T00:04:27;46.83;;;14.47;;
840;SDS011;406;48.566;13.450;2023-06-10T00:06:54;48.50;;;14.07;;
840;SDS011;406;48.566;13.450;2023-06-10T00:09:21;31.97;;;13.87;;
840;SDS011;406;48.566;13.450;2023-06-10T00:11:49;90.90;;;18.63;;
840;SDS011;406;48.566;13.450;2023-06-10T00:14:15;54.70;;;16.23;;
840;SDS011;406;48.566;13.450;2023-06-10T00:16:42;87.10;;;19.17;;
840;SDS011;406;48.566;13.450;2023-06-10T00:19:11;110.63;;;18.33;;
840;SDS011;406;48.566;13.450;2023-06-10T00:21:40;19.20;;;12.33;;
840;SDS011;406;48.566;13.450;2023-06-10T00:24:07;32.83;;;12.30;;
840;SDS011;406;48.566;13.450;2023-06-10T00:26:38;21.83;;;10.90;;
840;SDS011;406;48.566;13.450;2023-06-10T00:29:05;166.23;;;24.27;;
840;SDS011;406;48.566;13.450;2023-06-10T00:31:37;59.27;;;12.67;;
840;SDS011;406;48.566;13.450;2023-06-10T00:34:06;11.37;;;9.60;;
840;SDS011;406;48.566;13.450;2023-06-10T00:36:33;20.63;;;11.80;;
840;SDS011;406;48.566;13.450;2023-06-10T00:39:02;19.53;;;10.87;;
840;SDS011;406;48.566;13.450;2023-06-10T00:41:28;11.37;;;9.93;;
840;SDS011;406;48.566;13.450;2023-06-10T00:43:55;14.90;;;9.30;;
840;SDS011;406;48.566;13.450;2023-06-10T00:46:22;21.13;;;10.40;;
840;SDS011;406;48.566;13.450;2023-06-10T00:48:50;12.80;;;8.03;;
840;SDS011;406;48.566;13.450;2023-06-10T00:51:18;26.33;;;10.23;;
840;SDS011;406;48.566;13.450;2023-06-10T00:53:45;11.07;;;8.43;;
840;SDS011;406;48.566;13.450;2023-06-10T00:56:11;8.67;;;7.80;;
840;SDS011;406;48.566;13.450;2023-06-10T00:58:39;19.57;;;8.53;;
840;SDS011;406;48.566;13.450;2023-06-10T01:01:06;14.53;;;9.40;;
840;SDS011;406;48.566;13.450;2023-06-10T01:03:33;18.53;;;8.90;;
840;SDS011;406;48.566;13.450;2023-06-10T01:06:06;17.90;;;9.60;;
840;SDS011;406;48.566;13.450;2023-06-10T01:08:42;18.83;;;8.83;;
840;SDS011;406;48.566;13.450;2023-06-10T01:11:21;10.07;;;8.63;;
840;SDS011;406;48.566;13.450;2023-06-10T01:13:52;14.00;;;11.77;;
840;SDS011;406;48.566;13.450;2023-06-10T01:16:22;18.83;;;10.57;;
840;SDS011;406;48.566;13.450;2023-06-10T01:18:48;14.07;;;8.60;;
840;SDS011;406;48.566;13.450;2023-06-10T01:21:19;11.43;;;8.10;;
840;SDS011;406;48.566;13.450;2023-06-10T01:23:51;9.17;;;7.93;;
840;SDS011;406;48.566;13.450;2023-06-10T01:26:19;13.77;;;9.20;;
840;SDS011;406;48.566;13.450;2023-06-10T01:31:23;12.77;;;8.30;;
840;SDS011;406;48.566;13.450;2023-06-10T01:34:12;10.07;;;8.10;;
840;SDS011;406;48.566;13.450;2023-06-10T01:36:40;11.33;;;7.97;;
840;SDS011;406;48.566;13.450;2023-06-10T01:39:08;8.47;;;7.60;;
840;SDS011;406;48.566;13.450;2023-06-10T01:41:35;8.13;;;7.30;;
840;SDS011;406;48.566;13.450;2023-06-10T01:44:03;10.40;;;7.80;;
840;SDS011;406;48.566;13.450;2023-06-10T01:46:30;9.50;;;8.50;;
840;SDS011;406;48.566;13.450;2023-06-10T01:48:56;9.03;;;8.13;;
840;SDS011;406;48.566;13.450;2023-06-10T01:51:23;9.43;;;8.00;;
840;SDS011;406;48.566;13.450;2023-06-10T01:53:49;9.30;;;8.40;;
840;SDS011;406;48.566;13.450;2023-06-10T01:56:16;10.97;;;8.67;;
840;SDS011;406;48.566;13.450;2023-06-10T01:58:46;10.83;;;8.30;;
840;SDS011;406;48.566;13.450;2023-06-10T02:01:13;11.50;;;8.83;;
840;SDS011;406;48.566;13.450;2023-06-10T02:03:40;10.30;;;8.70;;
840;SDS011;406;48.566;13.450;2023-06-10T02:06:07;10.47;;;8.57;;
840;SDS011;406;48.566;13.450;2023-06-10T02:08:34;9.90;;;8.60;;
840;SDS011;406;48.566;13.450;2023-06-10T02:11:01;16.53;;;10.13;;
840;SDS011;406;48.566;13.450;2023-06-10T02:13:28;12.30;;;9.10;;
840;SDS011;406;48.566;13.450;2023-06-10T02:15:55;26.13;;;10.30;;
840;SDS011;406;48.566;13.450;2023-06-10T02:18:22;13.87;;;10.07;;
840;SDS011;406;48.566;13.450;2023-06-10T02:20:48;11.83;;;9.90;;
840;SDS011;406;48.566;13.450;2023-06-10T02:23:15;11.43;;;9.37;;
840;SDS011;406;48.566;13.450;2023-06-10T02:25:41;10.60;;;9.23;;
840;SDS011;406;48.566;13.450;2023-06-10T02:28:08;16.83;;;9.80;;
840;SDS011;406;48.566;13.450;2023-06-10T02:30:34;11.80;;;9.43;;
840;SDS011;406;48.566;13.450;2023-06-10T02:33:03;10.83;;;9.07;;
840;SDS011;406;48.566;13.450;2023-06-10T02:35:29;10.90;;;9.40;;
840;SDS011;406;48.566;13.450;2023-06-10T02:37:56;40.90;;;11.67;;
840;SDS011;406;48.566;13.450;2023-06-10T02:40:23;19.60;;;10.17;;
840;SDS011;406;48.566;13.450;2023-06-10T02:42:50;23.00;;;10.67;;
840;SDS011;406;48.566;13.450;2023-06-10T02:45:16;17.10;;;9.03;;
840;SDS011;406;48.566;13.450;2023-06-10T02:47:43;16.93;;;8.97;;
840;SDS011;406;48.566;13.450;2023-06-10T02:50:11;24.03;;;9.47;;
840;SDS011;406;48.566;13.450;2023-06-10T02:52:48;24.70;;;9.90;;
840;SDS011;406;48.566;13.450;2023-06-10T02:55:14;24.20;;;9.47;;
840;SDS011;406;48.566;13.450;2023-06-10T02:57:47;15.00;;;9.93;;
840;SDS011;406;48.566;13.450;2023-06-10T03:00:15;10.30;;;8.97;;
840;SDS011;406;48.566;13.450;2023-06-10T03:02:43;9.57;;;7.83;;
840;SDS011;406;48.566;13.450;2023-06-10T03:05:12;9.50;;;8.00;;
840;SDS011;406;48.566;13.450;2023-06-10T03:07:42;8.50;;;7.67;;
840;SDS011;406;48.566;13.450;2023-06-10T03:10:09;8.93;;;7.97;;
840;SDS011;406;48.566;13.450;2023-06-10T03:12:38;9.60;;;8.30;;
840;SDS011;406;48.566;13.450;2023-06-10T03:15:05;7.73;;;6.70;;
840;SDS011;406;48.566;13.450;2023-06-10T03:17:33;8.70;;;7.80;;
840;SDS011;406;48.566;13.450;2023-06-10T03:20:00;8.57;;;7.37;;
840;SDS011;406;48.566;13.450;2023-06-10T03:22:27;11.13;;;7.30;;
840;SDS011;406;48.566;13.450;2023-06-10T03:25:02;7.27;;;6.40;;
840;SDS011;406;48.566;13.450;2023-06-10T03:27:30;7.23;;;6.53;;
840;SDS011;406;48.566;13.450;2023-06-10T03:29:59;11.30;;;7.17;;
840;SDS011;406;48.566;13.450;2023-06-10T03:32:26;9.47;;;7.20;;
840;SDS011;406;48.566;13.450;2023-06-10T03:34:53;7.90;;;6.50;;
840;SDS011;406;48.566;13.450;2023-06-10T03:37:25;9.80;;;8.10;;
840;SDS011;406;48.566;13.450;2023-06-10T03:39:52;8.20;;;7.40;;
840;SDS011;406;48.566;13.450;2023-06-10T03:42:19;13.43;;;7.83;;
840;SDS011;406;48.566;13.450;2023-06-10T03:44:45;29.53;;;10.37;;
840;SDS011;406;48.566;13.450;2023-06-10T03:47:12;75.00;;;14.00;;
840;SDS011;406;48.566;13.450;2023-06-10T03:49:39;92.53;;;13.90;;
840;SDS011;406;48.566;13.450;2023-06-10T03:52:06;74.87;;;13.67;;
840;SDS011;406;48.566;13.450;2023-06-10T03:54:33;34.43;;;10.33;;
840;SDS011;406;48.566;13.450;2023-06-10T03:57:01;41.90;;;11.83;;
840;SDS011;406;48.566;13.450;2023-06-10T03:59:29;43.17;;;11.23;;
840;SDS011;406;48.566;13.450;2023-06-10T04:01:56;41.13;;;12.60;;
840;SDS011;406;48.566;13.450;2023-06-10T04:04:23;27.00;;;9.87;;
840;SDS011;406;48.566;13.450;2023-06-10T04:06:49;23.50;;;9.90;;
840;SDS011;406;48.566;13.450;2023-06-10T04:09:16;35.80;;;11.23;;
840;SDS011;406;48.566;13.450;2023-06-10T04:11:43;34.93;;;11.00;;
840;SDS011;406;48.566;13.450;2023-06-10T04:14:10;41.67;;;12.60;;
840;SDS011;406;48.566;13.450;2023-06-10T04:16:38;22.77;;;10.30;;
840;SDS011;406;48.566;13.450;2023-06-10T04:19:05;50.63;;;11.93;;
840;SDS011;406;48.566;13.450;2023-06-10T04:21:31;43.40;;;9.97;;
840;SDS011;406;48.566;13.450;2023-06-10T04:23:59;29.70;;;10.10;;
840;SDS011;406;48.566;13.450;2023-06-10T04:26:26;15.33;;;8.83;;
840;SDS011;406;48.566;13.450;2023-06-10T04:28:53;36.40;;;11.17;;
840;SDS011;406;48.566;13.450;2023-06-10T04:31:20;10.87;;;8.20;;
840;SDS011;406;48.566;13.450;2023-06-10T04:33:47;9.87;;;8.07;;
840;SDS011;406;48.566;13.450;2023-06-10T04:36:14;36.13;;;10.73;;
840;SDS011;406;48.566;13.450;2023-06-10T04:38:41;18.73;;;10.10;;
840;SDS011;406;48.566;13.450;2023-06-10T04:41:08;46.93;;;11.00;;
840;SDS011;406;48.566;13.450;2023-06-10T04:43:35;41.50;;;11.50;;
840;SDS011;406;48.566;13.450;2023-06-10T04:46:02;15.70;;;9.80;;
840;SDS011;406;48.566;13.450;2023-06-10T04:48:30;17.17;;;10.13;;
840;SDS011;406;48.566;13.450;2023-06-10T04:50:58;22.37;;;9.27;;
840;SDS011;406;48.566;13.450;2023-06-10T04:53:25;62.20;;;12.13;;
840;SDS011;406;48.566;13.450;2023-06-10T04:55:52;18.40;;;9.60;;
840;SDS011;406;48.566;13.450;2023-06-10T04:58:18;23.77;;;8.53;;
840;SDS011;406;48.566;13.450;2023-06-10T05:00:44;32.77;;;9.80;;
840;SDS011;406;48.566;13.450;2023-06-10T05:03:11;10.50;;;8.30;;
840;SDS011;406;48.566;13.450;2023-06-10T05:05:38;8.93;;;7.07;;
840;SDS011;406;48.566;13.450;2023-06-10T05:08:04;9.10;;;8.20;;
840;SDS011;406;48.566;13.450;2023-06-10T05:10:33;9.37;;;8.40;;
840;SDS011;406;48.566;13.450;2023-06-10T05:13:01;9.43;;;8.40;;
840;SDS011;406;48.566;13.450;2023-06-10T05:15:27;9.53;;;6.90;;
840;SDS011;406;48.566;13.450;2023-06-10T05:17:56;10.60;;;8.23;;
840;SDS011;406;48.566;13.450;2023-06-10T05:20:24;7.57;;;6.87;;
840;SDS011;406;48.566;13.450;2023-06-10T05:22:51;8.83;;;7.33;;
840;SDS011;406;48.566;13.450;2023-06-10T05:25:18;7.70;;;6.90;;
840;SDS011;406;48.566;13.450;2023-06-10T05:27:45;7.07;;;6.47;;
840;SDS011;406;48.566;13.450;2023-06-10T05:30:12;7.30;;;6.60;;
840;SDS011;406;48.566;13.450;2023-06-10T05:32:40;8.43;;;7.50;;
840;SDS011;406;48.566;13.450;2023-06-10T05:35:07;8.07;;;7.27;;
840;SDS011;406;48.566;13.450;2023-06-10T05:37:34;8.07;;;7.27;;
840;SDS011;406;48.566;13.450;2023-06-10T05:40:03;7.90;;;7.10;;
840;SDS011;406;48.566;13.450;2023-06-10T05:42:30;7.20;;;6.43;;
840;SDS011;406;48.566;13.450;2023-06-10T05:44:57;8.20;;;7.23;;
840;SDS011;406;48.566;13.450;2023-06-10T05:47:23;8.03;;;7.23;;
840;SDS011;406;48.566;13.450;2023-06-10T05:49:50;8.17;;;7.37;;
840;SDS011;406;48.566;13.450;2023-06-10T05:52:18;8.50;;;7.70;;
840;SDS011;406;48.566;13.450;2023-06-10T05:54:44;8.90;;;8.00;;
840;SDS011;406;48.566;13.450;2023-06-10T05:57:11;24.57;;;9.03;;
840;SDS011;406;48.566;13.450;2023-06-10T05:59:37;12.30;;;8.40;;
840;SDS011;406;48.566;13.450;2023-06-10T06:02:04;9.20;;;8.13;;
840;SDS011;406;48.566;13.450;2023-06-10T06:04:31;10.60;;;9.23;;
840;SDS011;406;48.566;13.450;2023-06-10T06:06:58;8.97;;;8.00;;
840;SDS011;406;48.566;13.450;2023-06-10T06:09:25;9.20;;;8.30;;
840;SDS011;406;48.566;13.450;2023-06-10T06:11:51;10.40;;;9.40;;
840;SDS011;406;48.566;13.450;2023-06-10T06:14:18;8.87;;;7.97;;
840;SDS011;406;48.566;13.450;2023-06-10T06:16:45;9.83;;;8.50;;
840;SDS011;406;48.566;13.450;2023-06-10T06:19:11;11.00;;;8.70;;
840;SDS011;406;48.566;13.450;2023-06-10T06:21:38;9.27;;;8.27;;
840;SDS011;406;48.566;13.450;2023-06-10T06:24:04;9.70;;;8.70;;
840;SDS011;406;48.566;13.450;2023-06-10T06:26:31;10.00;;;9.00;;
840;SDS011;406;48.566;13.450;2023-06-10T06:28:58;9.73;;;8.73;;
840;SDS011;406;48.566;13.450;2023-06-10T06:31:24;9.50;;;7.57;;
840;SDS011;406;48.566;13.450;2023-06-10T06:33:51;10.33;;;9.20;;
840;SDS011;406;48.566;13.450;2023-06-10T06:36:18;8.57;;;7.77;;
840;SDS011;406;48.566;13.450;2023-06-10T06:38:45;13.50;;;8.17;;
840;SDS011;406;48.566;13.450;2023-06-10T06:41:11;9.03;;;7.30;;
840;SDS011;406;48.566;13.450;2023-06-10T06:43:38;9.07;;;8.13;;
840;SDS011;406;48.566;13.450;2023-06-10T06:46:24;9.53;;;8.53;;
840;SDS011;406;48.566;13.450;2023-06-10T06:48:50;9.97;;;8.97;;
840;SDS011;406;48.566;13.450;2023-06-10T06:51:17;10.13;;;9.03;;
840;SDS011;406;48.566;13.450;2023-06-10T06:53:43;9.50;;;8.40;;
840;SDS011;406;48.566;13.450;2023-06-10T06:56:12;10.37;;;8.77;;
840;SDS011;406;48.566;13.450;2023-06-10T06:58:38;10.13;;;9.03;;
840;SDS011;406;48.566;13.450;2023-06-10T07:01:05;10.73;;;8.93;;
840;SDS011;406;48.566;13.450;2023-06-10T07:03:31;8.53;;;7.63;;
840;SDS011;406;48.566;13.450;2023-06-10T07:05:58;9.67;;;8.30;;
840;SDS011;406;48.566;13.450;2023-06-10T07:08:24;9.33;;;8.40;;
840;SDS011;406;48.566;13.450;2023-06-10T07:10:51;9.63;;;8.70;;
840;SDS011;406;48.566;13.450;2023-06-10T07:13:18;10.80;;;8.07;;
840;SDS011;406;48.566;13.450;2023-06-10T07:15:44;9.03;;;8.13;;
840;SDS011;406;48.566;13.450;2023-06-10T07:18:11;10.00;;;8.90;;
840;SDS011;406;48.566;13.450;2023-06-10T07:20:37;15.17;;;8.87;;
840;SDS011;406;48.566;13.450;2023-06-10T07:23:04;10.37;;;8.50;;
840;SDS011;406;48.566;13.450;2023-06-10T07:25:30;8.63;;;7.87;;
840;SDS011;406;48.566;13.450;2023-06-10T07:27:57;9.53;;;8.53;;
840;SDS011;406;48.566;13.450;2023-06-10T07:30:23;7.70;;;6.90;;
840;SDS011;406;48.566;13.450;2023-06-10T07:32:50;8.87;;;7.97;;
840;SDS011;406;48.566;13.450;2023-06-10T07:35:18;9.63;;;8.63;;
840;SDS011;406;48.566;13.450;2023-06-10T07:37:45;8.73;;;7.83;;
840;SDS011;406;48.566;13.450;2023-06-10T07:40:12;8.40;;;7.60;;
840;SDS011;406;48.566;13.450;2023-06-10T07:42:38;9.03;;;8.13;;
840;SDS011;406;48.566;13.450;2023-06-10T07:45:06;9.03;;;8.23;;
840;SDS011;406;48.566;13.450;2023-06-10T07:47:33;9.13;;;8.23;;
840;SDS011;406;48.566;13.450;2023-06-10T07:50:00;8.67;;;7.50;;
840;SDS011;406;48.566;13.450;2023-06-10T07:52:27;8.83;;;8.03;;
840;SDS011;406;48.566;13.450;2023-06-10T07:54:54;9.00;;;8.10;;
840;SDS011;406;48.566;13.450;2023-06-10T07:57:21;8.53;;;7.67;;
840;SDS011;406;48.566;13.450;2023-06-10T07:59:47;8.83;;;7.97;;
840;SDS011;406;48.566;13.450;2023-06-10T08:02:15;8.90;;;8.10;;
840;SDS011;406;48.566;13.450;2023-06-10T08:04:41;8.57;;;7.77;;
840;SDS011;406;48.566;13.450;2023-06-10T08:07:08;9.43;;;8.53;;
840;SDS011;406;48.566;13.450;2023-06-10T08:09:34;9.20;;;8.33;;
840;SDS011;406;48.566;13.450;2023-06-10T08:12:01;7.87;;;7.07;;
840;SDS011;406;48.566;13.450;2023-06-10T08:14:28;8.67;;;7.87;;
840;SDS011;406;48.566;13.450;2023-06-10T08:16:55;8.63;;;7.80;;
840;SDS011;406;48.566;13.450;2023-06-10T08:19:22;7.40;;;6.80;;
840;SDS011;406;48.566;13.450;2023-06-10T08:21:48;8.03;;;7.10;;
840;SDS011;406;48.566;13.450;2023-06-10T08:24:33;6.77;;;6.17;;
840;SDS011;406;48.566;13.450;2023-06-10T08:27:00;7.90;;;7.10;;
840;SDS011;406;48.566;13.450;2023-06-10T08:29:26;7.80;;;7.00;;
840;SDS011;406;48.566;13.450;2023-06-10T08:31:52;7.37;;;6.67;;
840;SDS011;406;48.566;13.450;2023-06-10T08:34:19;7.00;;;6.37;;
840;SDS011;406;48.566;13.450;2023-06-10T08:36:46;7.00;;;6.40;;
840;SDS011;406;48.566;13.450;2023-06-10T08:39:13;8.10;;;7.30;;
840;SDS011;406;48.566;13.450;2023-06-10T08:41:42;7.43;;;6.67;;
840;SDS011;406;48.566;13.450;2023-06-10T08:44:13;6.80;;;6.13;;
840;SDS011;406;48.566;13.450;2023-06-10T08:46:55;7.70;;;7.00;;
840;SDS011;406;48.566;13.450;2023-06-10T08:49:29;7.37;;;6.67;;
840;SDS011;406;48.566;13.450;2023-06-10T08:51:59;7.10;;;6.50;;
840;SDS011;406;48.566;13.450;2023-06-10T08:54:30;6.87;;;6.27;;
840;SDS011;406;48.566;13.450;2023-06-10T08:56:59;7.30;;;6.60;;
840;SDS011;406;48.566;13.450;2023-06-10T08:59:27;7.80;;;6.70;;
840;SDS011;406;48.566;13.450;2023-06-10T09:01:53;6.67;;;6.03;;
840;SDS011;406;48.566;13.450;2023-06-10T09:04:21;7.47;;;6.77;;
840;SDS011;406;48.566;13.450;2023-06-10T09:06:48;8.33;;;7.00;;
840;SDS011;406;48.566;13.450;2023-06-10T09:09:15;6.40;;;5.90;;
840;SDS011;406;48.566;13.450;2023-06-10T09:11:42;6.17;;;5.60;;
840;SDS011;406;48.566;13.450;2023-06-10T09:14:09;6.87;;;6.23;;
840;SDS011;406;48.566;13.450;2023-06-10T09:16:37;6.17;;;5.67;;
840;SDS011;406;48.566;13.450;2023-06-10T09:19:04;7.37;;;5.77;;
840;SDS011;406;48.566;13.450;2023-06-10T09:21:34;10.90;;;5.93;;
840;SDS011;406;48.566;13.450;2023-06-10T09:24:02;7.33;;;6.63;;
840;SDS011;406;48.566;13.450;2023-06-10T09:26:29;6.87;;;5.67;;
840;SDS011;406;48.566;13.450;2023-06-10T09:29:04;7.93;;;5.97;;
840;SDS011;406;48.566;13.450;2023-06-10T09:31:34;6.47;;;5.87;;
840;SDS011;406;48.566;13.450;2023-06-10T09:34:06;6.20;;;5.63;;
840;SDS011;406;48.566;13.450;2023-06-10T09:36:34;6.67;;;5.93;;
840;SDS011;406;48.566;13.450;2023-06-10T09:39:02;7.00;;;6.30;;
840;SDS011;406;48.566;13.450;2023-06-10T09:41:35;6.57;;;5.73;;
840;SDS011;406;48.566;13.450;2023-06-10T09:44:16;6.43;;;5.93;;
840;SDS011;406;48.566;13.450;2023-06-10T09:46:50;6.57;;;5.97;;
840;SDS011;406;48.566;13.450;2023-06-10T09:49:17;5.90;;;5.40;;
840;SDS011;406;48.566;13.450;2023-06-10T09:51:53;6.60;;;6.00;;
840;SDS011;406;48.566;13.450;2023-06-10T09:54:21;6.63;;;6.03;;
840;SDS011;406;48.566;13.450;2023-06-10T09:56:48;6.03;;;5.33;;
840;SDS011;406;48.566;13.450;2023-06-10T09:59:16;6.20;;;5.40;;
840;SDS011;406;48.566;13.450;2023-06-10T10:01:42;5.83;;;5.20;;
840;SDS011;406;48.566;13.450;2023-06-10T10:04:09;6.23;;;5.67;;
840;SDS011;406;48.566;13.450;2023-06-10T10:06:36;6.30;;;5.80;;
840;SDS011;406;48.566;13.450;2023-06-10T10:09:02;6.50;;;6.00;;
840;SDS011;406;48.566;13.450;2023-06-10T10:11:30;5.80;;;5.30;;
840;SDS011;406;48.566;13.450;2023-06-10T10:13:58;6.40;;;5.80;;
840;SDS011;406;48.566;13.450;2023-06-10T10:16:30;6.30;;;5.70;;
840;SDS011;406;48.566;13.450;2023-06-10T10:19:07;6.70;;;6.10;;
840;SDS011;406;48.566;13.450;2023-06-10T10:21:38;6.87;;;6.23;;
840;SDS011;406;48.566;13.450;2023-06-10T10:24:17;7.13;;;6.43;;
840;SDS011;406;48.566;13.450;2023-06-10T10:26:46;7.80;;;7.10;;
840;SDS011;406;48.566;13.450;2023-06-10T10:29:20;6.27;;;5.77;;
840;SDS011;406;48.566;13.450;2023-06-10T10:31:51;5.43;;;4.93;;
840;SDS011;406;48.566;13.450;2023-06-10T10:34:21;5.67;;;5.17;;
840;SDS011;406;48.566;13.450;2023-06-10T10:36:52;9.17;;;5.20;;
840;SDS011;406;48.566;13.450;2023-06-10T10:39:18;5.80;;;5.30;;
840;SDS011;406;48.566;13.450;2023-06-10T10:41:45;6.27;;;5.77;;
840;SDS011;406;48.566;13.450;2023-06-10T10:44:13;6.63;;;5.80;;
840;SDS011;406;48.566;13.450;2023-06-10T10:46:43;8.20;;;7.50;;
840;SDS011;406;48.566;13.450;2023-06-10T10:49:20;6.40;;;5.80;;
840;SDS011;406;48.566;13.450;2023-06-10T10:51:55;7.90;;;5.87;;
840;SDS011;406;48.566;13.450;2023-06-10T10:54:32;6.73;;;5.10;;
840;SDS011;406;48.566;13.450;2023-06-10T10:59:45;6.13;;;5.00;;
840;SDS011;406;48.566;13.450;2023-06-10T11:02:32;5.23;;;4.73;;
840;SDS011;406;48.566;13.450;2023-06-10T11:05:01;6.27;;;5.17;;
840;SDS011;406;48.566;13.450;2023-06-10T11:07:32;5.30;;;4.80;;
840;SDS011;406;48.566;13.450;2023-06-10T11:10:03;5.37;;;4.97;;
840;SDS011;406;48.566;13.450;2023-06-10T11:12:42;6.30;;;5.70;;
840;SDS011;406;48.566;13.450;2023-06-10T11:15:19;5.50;;;5.00;;
840;SDS011;406;48.566;13.450;2023-06-10T11:23:24;6.97;;;6.37;;
840;SDS011;406;48.566;13.450;2023-06-10T11:25:51;6.17;;;5.57;;
840;SDS011;406;48.566;13.450;2023-06-10T11:28:18;5.50;;;5.00;;
840;SDS011;406;48.566;13.450;2023-06-10T11:30:45;5.70;;;5.20;;
840;SDS011;406;48.566;13.450;2023-06-10T11:33:16;5.80;;;5.30;;
840;SDS011;406;48.566;13.450;2023-06-10T11:35:43;5.50;;;5.00;;
840;SDS011;406;48.566;13.450;2023-06-10T11:38:10;5.23;;;4.83;;
840;SDS011;406;48.566;13.450;2023-06-10T11:40:36;4.63;;;4.23;;
840;SDS011;406;48.566;13.450;2023-06-10T11:43:03;4.83;;;4.43;;
840;SDS011;406;48.566;13.450;2023-06-10T11:45:30;3.70;;;3.40;;
840;SDS011;406;48.566;13.450;2023-06-10T11:48:00;5.10;;;4.70;;
840;SDS011;406;48.566;13.450;2023-06-10T11:50:28;4.50;;;4.10;;
840;SDS011;406;48.566;13.450;2023-06-10T11:52:58;4.70;;;4.30;;
840;SDS011;406;48.566;13.450;2023-06-10T11:55:58;4.17;;;3.50;;
840;SDS011;406;48.566;13.450;2023-06-10T11:58:17;5.23;;;4.77;;
840;SDS011;406;48.566;13.450;2023-06-10T12:00:55;4.63;;;4.23;;
840;SDS011;406;48.566;13.450;2023-06-10T12:03:25;5.10;;;4.60;;
840;SDS011;406;48.566;13.450;2023-06-10T12:05:58;4.90;;;4.50;;
840;SDS011;406;48.566;13.450;2023-06-10T12:08:26;5.87;;;4.83;;
840;SDS011;406;48.566;13.450;2023-06-10T12:10:54;4.90;;;4.50;;
840;SDS011;406;48.566;13.450;2023-06-10T12:13:20;9.03;;;5.20;;
840;SDS011;406;48.566;13.450;2023-06-10T12:15:47;5.90;;;5.37;;
840;SDS011;406;48.566;13.450;2023-06-10T12:18:17;6.17;;;4.40;;
840;SDS011;406;48.566;13.450;2023-06-10T12:20:45;7.63;;;5.43;;
840;SDS011;406;48.566;13.450;2023-06-10T12:23:12;6.13;;;5.53;;
840;SDS011;406;48.566;13.450;2023-06-10T12:25:39;5.63;;;5.13;;
840;SDS011;406;48.566;13.450;2023-06-10T12:28:09;6.53;;;4.83;;
840;SDS011;406;48.566;13.450;2023-06-10T12:30:36;8.67;;;6.40;;
840;SDS011;406;48.566;13.450;2023-06-10T12:33:03;5.90;;;5.43;;
840;SDS011;406;48.566;13.450;2023-06-10T12:35:29;5.57;;;5.07;;
840;SDS011;406;48.566;13.450;2023-06-10T12:38:00;6.30;;;5.80;;
840;SDS011;406;48.566;13.450;2023-06-10T12:40:33;7.33;;;6.73;;
840;SDS011;406;48.566;13.450;2023-06-10T12:43:02;6.97;;;5.80;;
840;SDS011;406;48.566;13.450;2023-06-10T12:45:29;7.50;;;6.47;;
840;SDS011;406;48.566;13.450;2023-06-10T12:48:10;7.53;;;6.27;;
840;SDS011;406;48.566;13.450;2023-06-10T12:50:38;6.30;;;5.70;;
840;SDS011;406;48.566;13.450;2023-06-10T12:53:06;7.23;;;6.50;;
840;SDS011;406;48.566;13.450;2023-06-10T12:55:32;6.80;;;5.80;;
840;SDS011;406;48.566;13.450;2023-06-10T12:58:00;6.93;;;6.20;;
840;SDS011;406;48.566;13.450;2023-06-10T13:00:27;7.17;;;5.30;;
840;SDS011;406;48.566;13.450;2023-06-10T13:02:59;6.87;;;6.27;;
840;SDS011;406;48.566;13.450;2023-06-10T13:05:27;7.73;;;6.87;;
840;SDS011;406;48.566;13.450;2023-06-10T13:07:54;6.30;;;5.80;;
840;SDS011;406;48.566;13.450;2023-06-10T13:10:20;6.23;;;5.73;;
840;SDS011;406;48.566;13.450;2023-06-10T13:12:51;7.53;;;6.73;;
840;SDS011;406;48.566;13.450;2023-06-10T13:15:18;6.90;;;6.30;;
840;SDS011;406;48.566;13.450;2023-06-10T13:17:45;7.17;;;6.60;;
840;SDS011;406;48.566;13.450;2023-06-10T13:20:16;7.33;;;6.60;;
840;SDS011;406;48.566;13.450;2023-06-10T13:22:43;8.30;;;7.50;;
840;SDS011;406;48.566;13.450;2023-06-10T13:25:10;7.43;;;6.77;;
840;SDS011;406;48.566;13.450;2023-06-10T13:27:38;9.50;;;7.70;;
840;SDS011;406;48.566;13.450;2023-06-10T13:30:09;6.97;;;6.40;;
840;SDS011;406;48.566;13.450;2023-06-10T13:32:36;7.40;;;6.70;;
840;SDS011;406;48.566;13.450;2023-06-10T13:35:03;7.90;;;7.10;;
840;SDS011;406;48.566;13.450;2023-06-10T13:37:31;7.30;;;6.60;;
840;SDS011;406;48.566;13.450;2023-06-10T13:40:00;7.30;;;6.70;;
840;SDS011;406;48.566;13.450;2023-06-10T13:42:27;7.43;;;6.83;;
840;SDS011;406;48.566;13.450;2023-06-10T13:44:55;6.90;;;6.40;;
840;SDS011;406;48.566;13.450;2023-06-10T13:47:22;7.33;;;6.57;;
840;SDS011;406;48.566;13.450;2023-06-10T13:49:49;7.83;;;7.20;;
840;SDS011;406;48.566;13.450;2023-06-10T13:52:16;7.80;;;7.10;;
840;SDS011;406;48.566;13.450;2023-06-10T13:54:43;8.00;;;7.20;;
840;SDS011;406;48.566;13.450;2023-06-10T13:57:09;7.67;;;6.97;;
840;SDS011;406;48.566;13.450;2023-06-10T13:59:36;6.00;;;5.50;;
840;SDS011;406;48.566;13.450;2023-06-10T14:02:03;5.63;;;5.13;;
840;SDS011;406;48.566;13.450;2023-06-10T14:04:30;5.50;;;5.00;;
840;SDS011;406;48.566;13.450;2023-06-10T14:06:56;5.73;;;5.23;;
840;SDS011;406;48.566;13.450;2023-06-10T14:09:23;6.37;;;5.77;;
840;SDS011;406;48.566;13.450;2023-06-10T14:11:50;6.70;;;6.07;;
840;SDS011;406;48.566;13.450;2023-06-10T14:14:16;6.23;;;5.63;;
840;SDS011;406;48.566;13.450;2023-06-10T14:16:43;6.23;;;5.73;;
840;SDS011;406;48.566;13.450;2023-06-10T14:19:10;5.80;;;5.30;;
840;SDS011;406;48.566;13.450;2023-06-10T14:21:36;6.40;;;5.17;;
840;SDS011;406;48.566;13.450;2023-06-10T14:24:03;6.13;;;5.63;;
840;SDS011;406;48.566;13.450;2023-06-10T14:26:29;6.83;;;6.07;;
840;SDS011;406;48.566;13.450;2023-06-10T14:28:58;6.27;;;5.73;;
840;SDS011;406;48.566;13.450;2023-06-10T14:31:24;8.00;;;6.13;;
840;SDS011;406;48.566;13.450;2023-06-10T14:33:51;7.23;;;5.50;;
840;SDS011;406;48.566;13.450;2023-06-10T14:36:18;6.20;;;5.70;;
840;SDS011;406;48.566;13.450;2023-06-10T14:38:45;5.70;;;5.17;;
840;SDS011;406;48.566;13.450;2023-06-10T14:41:12;7.03;;;6.30;;
840;SDS011;406;48.566;13.450;2023-06-10T14:43:39;5.07;;;4.63;;
840;SDS011;406;48.566;13.450;2023-06-10T14:46:05;5.40;;;4.90;;
840;SDS011;406;48.566;13.450;2023-06-10T14:48:32;11.70;;;4.43;;
840;SDS011;406;48.566;13.450;2023-06-10T14:50:58;5.40;;;3.90;;
840;SDS011;406;48.566;13.450;2023-06-10T14:53:25;7.77;;;3.97;;
840;SDS011;406;48.566;13.450;2023-06-10T14:55:51;7.53;;;5.47;;
840;SDS011;406;48.566;13.450;2023-06-10T14:58:18;6.73;;;5.03;;
840;SDS011;406;48.566;13.450;2023-06-10T15:00:44;9.00;;;5.70;;
840;SDS011;406;48.566;13.450;2023-06-10T15:03:11;9.70;;;5.33;;
840;SDS011;406;48.566;13.450;2023-06-10T15:05:38;7.87;;;5.43;;
840;SDS011;406;48.566;13.450;2023-06-10T15:08:04;8.27;;;5.07;;
840;SDS011;406;48.566;13.450;2023-06-10T15:10:31;5.73;;;5.20;;
840;SDS011;406;48.566;13.450;2023-06-10T15:12:58;10.97;;;5.90;;
840;SDS011;406;48.566;13.450;2023-06-10T15:15:24;5.90;;;4.90;;
840;SDS011;406;48.566;13.450;2023-06-10T15:17:54;10.40;;;6.50;;
840;SDS011;406;48.566;13.450;2023-06-10T15:20:21;9.90;;;7.10;;
840;SDS011;406;48.566;13.450;2023-06-10T15:22:48;17.33;;;7.83;;
840;SDS011;406;48.566;13.450;2023-06-10T15:25:15;10.93;;;8.63;;
840;SDS011;406;48.566;13.450;2023-06-10T15:27:56;13.17;;;8.80;;
840;SDS011;406;48.566;13.450;2023-06-10T15:30:22;16.53;;;8.67;;
840;SDS011;406;48.566;13.450;2023-06-10T15:32:49;10.43;;;8.60;;
840;SDS011;406;48.566;13.450;2023-06-10T15:35:16;9.17;;;8.00;;
840;SDS011;406;48.566;13.450;2023-06-10T15:37:42;11.53;;;8.97;;
840;SDS011;406;48.566;13.450;2023-06-10T15:40:09;13.87;;;9.60;;